sensor_id;sensor_type;location;lat;lon;timestamp;pressure;altitude;pressure_sealevel;temperature;humidity
75815;BME280;64451;45.574;14.224;2022-12-18T00:01:48;97855.25;;;1.27;89.57
75815;BME280;64451;45.574;14.224;2022-12-18T00:03:48;97860.94;;;1.24;89.08
75815;BME280;64451;45.574;14.224;2022-12-18T00:05:51;97868.31;;;1.28;89.08
75815;BME280;64451;45.574;14.224;2022-12-18T00:07:51;97867.47;;;1.48;88.60
75815;BME280;64451;45.574;14.224;2022-12-18T00:09:52;97859.53;;;1.67;86.70
75815;BME280;64451;45.574;14.224;2022-12-18T00:11:52;97864.22;;;1.46;87.80
75815;BME280;64451;45.574;14.224;2022-12-18T00:13:54;97866.50;;;1.42;89.01
75815;BME280;64451;45.574;14.224;2022-12-18T00:15:55;97871.75;;;1.49;88.39
75815;BME280;64451;45.574;14.224;2022-12-18T00:17:55;97875.88;;;1.51;88.74
75815;BME280;64451;45.574;14.224;2022-12-18T00:19:56;97878.06;;;1.15;90.63
75815;BME280;64451;45.574;14.224;2022-12-18T00:21:56;97873.59;;;1.15;91.16
75815;BME280;64451;45.574;14.224;2022-12-18T00:23:59;97873.34;;;0.90;90.76
75815;BME280;64451;45.574;14.224;2022-12-18T00:26:04;97877.25;;;1.14;90.25
75815;BME280;64451;45.574;14.224;2022-12-18T00:28:05;97878.72;;;1.30;89.54
75815;BME280;64451;45.574;14.224;2022-12-18T00:30:06;97893.38;;;1.06;90.36
75815;BME280;64451;45.574;14.224;2022-12-18T00:32:06;97890.53;;;1.27;89.77
75815;BME280;64451;45.574;14.224;2022-12-18T00:34:10;97895.84;;;1.27;89.77
75815;BME280;64451;45.574;14.224;2022-12-18T00:36:20;97887.69;;;1.22;90.27
75815;BME280;64451;45.574;14.224;2022-12-18T00:38:20;97892.53;;;0.99;91.88
75815;BME280;64451;45.574;14.224;2022-12-18T00:40:21;97892.56;;;1.12;91.63
75815;BME280;64451;45.574;14.224;2022-12-18T00:42:21;97894.22;;;1.33;90.86
75815;BME280;64451;45.574;14.224;2022-12-18T00:44:40;97902.94;;;1.07;91.58
75815;BME280;64451;45.574;14.224;2022-12-18T00:46:41;97901.72;;;1.03;92.22
75815;BME280;64451;45.574;14.224;2022-12-18T00:48:42;97905.16;;;0.83;93.08
75815;BME280;64451;45.574;14.224;2022-12-18T00:50:42;97913.72;;;0.86;94.22
75815;BME280;64451;45.574;14.224;2022-12-18T00:52:42;97900.25;;;0.80;94.29
75815;BME280;64451;45.574;14.224;2022-12-18T00:54:43;97914.94;;;0.90;93.98
75815;BME280;64451;45.574;14.224;2022-12-18T00:56:43;97913.84;;;0.64;94.38
75815;BME280;64451;45.574;14.224;2022-12-18T00:58:44;97916.91;;;0.68;94.57
75815;BME280;64451;45.574;14.224;2022-12-18T01:00:44;97914.16;;;1.16;91.42
75815;BME280;64451;45.574;14.224;2022-12-18T01:02:44;97920.69;;;1.13;90.91
75815;BME280;64451;45.574;14.224;2022-12-18T01:04:45;97915.97;;;0.95;91.25
75815;BME280;64451;45.574;14.224;2022-12-18T01:06:45;97922.53;;;1.12;90.85
75815;BME280;64451;45.574;14.224;2022-12-18T01:08:45;97926.44;;;1.17;89.24
75815;BME280;64451;45.574;14.224;2022-12-18T01:10:46;97925.63;;;1.36;87.99
75815;BME280;64451;45.574;14.224;2022-12-18T01:12:46;97920.72;;;1.20;88.73
75815;BME280;64451;45.574;14.224;2022-12-18T01:14:46;97924.97;;;1.01;88.81
75815;BME280;64451;45.574;14.224;2022-12-18T01:16:47;97929.03;;;0.97;89.37
75815;BME280;64451;45.574;14.224;2022-12-18T01:18:51;97938.41;;;0.45;89.66
75815;BME280;64451;45.574;14.224;2022-12-18T01:20:51;97939.91;;;0.61;88.11
75815;BME280;64451;45.574;14.224;2022-12-18T01:22:52;97942.63;;;0.33;90.22
75815;BME280;64451;45.574;14.224;2022-12-18T01:24:52;97947.19;;;0.45;90.29
75815;BME280;64451;45.574;14.224;2022-12-18T01:26:52;97938.97;;;0.75;89.25
75815;BME280;64451;45.574;14.224;2022-12-18T01:28:54;97945.81;;;0.63;89.33
75815;BME280;64451;45.574;14.224;2022-12-18T01:30:54;97944.84;;;0.70;89.07
75815;BME280;64451;45.574;14.224;2022-12-18T01:32:55;97942.53;;;0.54;89.37
75815;BME280;64451;45.574;14.224;2022-12-18T01:34:55;97945.75;;;0.49;90.31
75815;BME280;64451;45.574;14.224;2022-12-18T01:36:55;97936.00;;;0.50;89.87
75815;BME280;64451;45.574;14.224;2022-12-18T01:38:56;97942.91;;;0.44;89.75
75815;BME280;64451;45.574;14.224;2022-12-18T01:40:59;97941.50;;;0.14;91.02
75815;BME280;64451;45.574;14.224;2022-12-18T01:43:00;97934.56;;;0.13;90.98
75815;BME280;64451;45.574;14.224;2022-12-18T01:47:20;97936.88;;;0.22;90.52
75815;BME280;64451;45.574;14.224;2022-12-18T01:49:21;97946.94;;;0.06;90.75
75815;BME280;64451;45.574;14.224;2022-12-18T01:51:21;97949.16;;;0.37;90.71
75815;BME280;64451;45.574;14.224;2022-12-18T01:53:23;97942.81;;;0.31;90.47
75815;BME280;64451;45.574;14.224;2022-12-18T01:55:26;97931.75;;;-0.14;90.57
75815;BME280;64451;45.574;14.224;2022-12-18T01:57:28;97950.44;;;-0.22;90.06
75815;BME280;64451;45.574;14.224;2022-12-18T01:59:31;97952.97;;;-0.78;93.35
75815;BME280;64451;45.574;14.224;2022-12-18T02:01:32;97962.91;;;-0.59;92.84
75815;BME280;64451;45.574;14.224;2022-12-18T02:03:33;97959.19;;;-0.43;91.88
75815;BME280;64451;45.574;14.224;2022-12-18T02:08:13;97964.53;;;-0.36;91.48
75815;BME280;64451;45.574;14.224;2022-12-18T02:10:25;97960.47;;;-0.11;90.84
75815;BME280;64451;45.574;14.224;2022-12-18T02:12:45;97967.66;;;-0.05;90.31
75815;BME280;64451;45.574;14.224;2022-12-18T02:17:03;97970.22;;;-0.82;92.33
75815;BME280;64451;45.574;14.224;2022-12-18T02:19:19;97972.56;;;-1.45;94.81
75815;BME280;64451;45.574;14.224;2022-12-18T02:26:21;97987.47;;;-0.86;93.53
75815;BME280;64451;45.574;14.224;2022-12-18T02:28:30;97983.38;;;-0.89;93.66
75815;BME280;64451;45.574;14.224;2022-12-18T02:30:33;97999.66;;;-0.85;93.78
75815;BME280;64451;45.574;14.224;2022-12-18T02:32:39;97995.88;;;-0.97;94.03
75815;BME280;64451;45.574;14.224;2022-12-18T02:34:41;97995.47;;;-0.79;93.57
75815;BME280;64451;45.574;14.224;2022-12-18T02:36:44;97996.50;;;-1.31;95.25
75815;BME280;64451;45.574;14.224;2022-12-18T02:38:45;98001.56;;;-1.15;95.49
75815;BME280;64451;45.574;14.224;2022-12-18T02:40:48;98008.28;;;-1.13;95.34
75815;BME280;64451;45.574;14.224;2022-12-18T02:42:49;98000.59;;;-0.93;93.86
75815;BME280;64451;45.574;14.224;2022-12-18T02:44:51;98012.25;;;-1.23;94.39
75815;BME280;64451;45.574;14.224;2022-12-18T02:46:53;98005.78;;;-1.35;94.38
75815;BME280;64451;45.574;14.224;2022-12-18T02:49:01;98008.25;;;-1.49;95.28
75815;BME280;64451;45.574;14.224;2022-12-18T02:51:14;98003.78;;;-1.48;95.23
75815;BME280;64451;45.574;14.224;2022-12-18T02:53:33;98004.69;;;-1.56;95.26
75815;BME280;64451;45.574;14.224;2022-12-18T02:58:28;98012.50;;;-1.33;93.65
75815;BME280;64451;45.574;14.224;2022-12-18T03:00:40;98006.59;;;-1.35;94.22
75815;BME280;64451;45.574;14.224;2022-12-18T03:02:46;98008.72;;;-1.09;92.80
75815;BME280;64451;45.574;14.224;2022-12-18T03:04:57;98010.00;;;-1.05;91.58
75815;BME280;64451;45.574;14.224;2022-12-18T03:07:05;98012.84;;;-1.06;91.39
75815;BME280;64451;45.574;14.224;2022-12-18T03:09:21;98016.81;;;-0.96;90.91
75815;BME280;64451;45.574;14.224;2022-12-18T03:11:22;98003.38;;;-0.79;90.87
75815;BME280;64451;45.574;14.224;2022-12-18T03:13:51;98014.28;;;-1.04;91.92
75815;BME280;64451;45.574;14.224;2022-12-18T03:15:56;98012.75;;;-1.13;92.45
75815;BME280;64451;45.574;14.224;2022-12-18T03:18:10;98011.25;;;-1.01;91.60
75815;BME280;64451;45.574;14.224;2022-12-18T03:20:17;98007.59;;;-0.85;90.79
75815;BME280;64451;45.574;14.224;2022-12-18T03:22:20;98007.66;;;-0.78;91.50
75815;BME280;64451;45.574;14.224;2022-12-18T03:24:24;98023.91;;;-0.81;92.93
75815;BME280;64451;45.574;14.224;2022-12-18T03:26:25;98019.66;;;-0.97;94.06
75815;BME280;64451;45.574;14.224;2022-12-18T03:28:30;98022.22;;;-1.19;94.97
75815;BME280;64451;45.574;14.224;2022-12-18T03:30:33;98026.88;;;-1.35;95.29
75815;BME280;64451;45.574;14.224;2022-12-18T03:32:41;98031.09;;;-1.71;95.43
75815;BME280;64451;45.574;14.224;2022-12-18T03:34:43;98033.19;;;-1.51;95.29
75815;BME280;64451;45.574;14.224;2022-12-18T03:36:44;98042.25;;;-1.24;95.62
75815;BME280;64451;45.574;14.224;2022-12-18T03:38:44;98035.81;;;-1.22;95.00
75815;BME280;64451;45.574;14.224;2022-12-18T03:40:53;98042.38;;;-1.32;95.66
75815;BME280;64451;45.574;14.224;2022-12-18T03:43:03;98041.19;;;-1.30;95.61
75815;BME280;64451;45.574;14.224;2022-12-18T03:45:10;98045.28;;;-1.27;95.63
75815;BME280;64451;45.574;14.224;2022-12-18T03:47:28;98051.47;;;-1.50;96.01
75815;BME280;64451;45.574;14.224;2022-12-18T03:52:02;98049.75;;;-1.72;96.95
75815;BME280;64451;45.574;14.224;2022-12-18T03:54:06;98060.69;;;-1.46;96.87
75815;BME280;64451;45.574;14.224;2022-12-18T03:56:09;98051.94;;;-1.31;95.66
75815;BME280;64451;45.574;14.224;2022-12-18T03:58:11;98059.97;;;-1.39;95.95
75815;BME280;64451;45.574;14.224;2022-12-18T04:00:16;98057.84;;;-1.59;95.88
75815;BME280;64451;45.574;14.224;2022-12-18T04:02:17;98058.25;;;-1.85;96.20
75815;BME280;64451;45.574;14.224;2022-12-18T04:04:18;98053.69;;;-1.91;96.92
75815;BME280;64451;45.574;14.224;2022-12-18T04:06:20;98056.75;;;-2.02;96.83
75815;BME280;64451;45.574;14.224;2022-12-18T04:08:21;98062.72;;;-2.23;97.17
75815;BME280;64451;45.574;14.224;2022-12-18T04:10:22;98071.31;;;-2.06;96.51
75815;BME280;64451;45.574;14.224;2022-12-18T04:12:26;98071.19;;;-1.75;95.54
75815;BME280;64451;45.574;14.224;2022-12-18T04:14:26;98085.06;;;-1.96;95.61
75815;BME280;64451;45.574;14.224;2022-12-18T04:16:27;98089.22;;;-2.02;95.85
75815;BME280;64451;45.574;14.224;2022-12-18T04:18:27;98085.78;;;-2.02;96.42
75815;BME280;64451;45.574;14.224;2022-12-18T04:20:28;98090.13;;;-1.72;95.63
75815;BME280;64451;45.574;14.224;2022-12-18T04:22:28;98099.00;;;-1.87;95.56
75815;BME280;64451;45.574;14.224;2022-12-18T04:24:28;98106.44;;;-2.06;96.67
75815;BME280;64451;45.574;14.224;2022-12-18T04:26:30;98097.56;;;-2.13;96.39
75815;BME280;64451;45.574;14.224;2022-12-18T04:28:31;98098.31;;;-2.27;96.45
75815;BME280;64451;45.574;14.224;2022-12-18T04:30:31;98104.47;;;-2.12;96.45
75815;BME280;64451;45.574;14.224;2022-12-18T04:32:33;98108.69;;;-2.26;96.35
75815;BME280;64451;45.574;14.224;2022-12-18T04:34:34;98110.50;;;-2.26;96.79
75815;BME280;64451;45.574;14.224;2022-12-18T04:36:34;98114.94;;;-2.49;97.00
75815;BME280;64451;45.574;14.224;2022-12-18T04:38:34;98117.78;;;-2.59;97.74
75815;BME280;64451;45.574;14.224;2022-12-18T04:40:36;98117.28;;;-2.55;97.61
75815;BME280;64451;45.574;14.224;2022-12-18T04:42:36;98113.78;;;-2.24;97.03
75815;BME280;64451;45.574;14.224;2022-12-18T04:44:37;98109.94;;;-2.13;96.83
75815;BME280;64451;45.574;14.224;2022-12-18T04:46:37;98102.97;;;-2.29;97.47
75815;BME280;64451;45.574;14.224;2022-12-18T04:48:38;98113.84;;;-2.09;97.60
75815;BME280;64451;45.574;14.224;2022-12-18T04:50:38;98109.31;;;-1.78;96.48
75815;BME280;64451;45.574;14.224;2022-12-18T04:52:38;98116.72;;;-1.73;96.04
75815;BME280;64451;45.574;14.224;2022-12-18T04:54:39;98120.88;;;-1.79;95.79
75815;BME280;64451;45.574;14.224;2022-12-18T04:56:39;98125.66;;;-1.97;96.44
75815;BME280;64451;45.574;14.224;2022-12-18T04:58:41;98124.09;;;-1.91;96.72
75815;BME280;64451;45.574;14.224;2022-12-18T05:00:41;98126.72;;;-1.91;96.22
75815;BME280;64451;45.574;14.224;2022-12-18T05:02:42;98127.41;;;-2.12;96.53
75815;BME280;64451;45.574;14.224;2022-12-18T05:04:42;98127.16;;;-2.57;96.64
75815;BME280;64451;45.574;14.224;2022-12-18T05:06:42;98123.78;;;-2.42;96.72
75815;BME280;64451;45.574;14.224;2022-12-18T05:08:43;98127.03;;;-2.32;96.65
75815;BME280;64451;45.574;14.224;2022-12-18T05:10:43;98141.34;;;-2.27;96.87
75815;BME280;64451;45.574;14.224;2022-12-18T05:12:43;98136.78;;;-2.10;96.16
75815;BME280;64451;45.574;14.224;2022-12-18T05:14:59;98132.81;;;-2.06;95.75
75815;BME280;64451;45.574;14.224;2022-12-18T05:16:59;98133.38;;;-2.18;96.30
75815;BME280;64451;45.574;14.224;2022-12-18T05:19:00;98140.41;;;-2.11;96.07
75815;BME280;64451;45.574;14.224;2022-12-18T05:21:00;98151.84;;;-1.95;95.36
75815;BME280;64451;45.574;14.224;2022-12-18T05:23:00;98161.25;;;-2.01;95.41
75815;BME280;64451;45.574;14.224;2022-12-18T05:25:01;98164.66;;;-1.92;94.35
75815;BME280;64451;45.574;14.224;2022-12-18T05:27:01;98159.41;;;-1.92;94.61
75815;BME280;64451;45.574;14.224;2022-12-18T05:29:01;98145.13;;;-1.83;93.66
75815;BME280;64451;45.574;14.224;2022-12-18T05:31:04;98152.72;;;-1.80;93.50
75815;BME280;64451;45.574;14.224;2022-12-18T05:33:05;98157.94;;;-1.95;93.84
75815;BME280;64451;45.574;14.224;2022-12-18T05:35:06;98165.41;;;-1.99;94.35
75815;BME280;64451;45.574;14.224;2022-12-18T05:37:07;98162.13;;;-2.09;94.65
75815;BME280;64451;45.574;14.224;2022-12-18T05:39:08;98171.75;;;-2.16;95.38
75815;BME280;64451;45.574;14.224;2022-12-18T05:41:08;98171.69;;;-2.08;95.16
75815;BME280;64451;45.574;14.224;2022-12-18T05:43:09;98164.25;;;-2.04;95.44
75815;BME280;64451;45.574;14.224;2022-12-18T05:45:10;98181.91;;;-2.05;95.28
75815;BME280;64451;45.574;14.224;2022-12-18T05:47:10;98178.31;;;-2.12;95.46
75815;BME280;64451;45.574;14.224;2022-12-18T05:49:11;98185.88;;;-2.09;95.43
75815;BME280;64451;45.574;14.224;2022-12-18T05:51:14;98186.47;;;-2.21;96.19
75815;BME280;64451;45.574;14.224;2022-12-18T05:53:17;98189.66;;;-2.03;95.46
75815;BME280;64451;45.574;14.224;2022-12-18T05:55:18;98180.81;;;-1.87;95.02
75815;BME280;64451;45.574;14.224;2022-12-18T05:57:18;98190.66;;;-1.81;94.39
75815;BME280;64451;45.574;14.224;2022-12-18T05:59:18;98194.56;;;-2.00;94.23
75815;BME280;64451;45.574;14.224;2022-12-18T06:01:23;98196.00;;;-2.20;94.74
75815;BME280;64451;45.574;14.224;2022-12-18T06:03:23;98198.38;;;-2.34;95.57
75815;BME280;64451;45.574;14.224;2022-12-18T06:05:24;98198.28;;;-2.17;94.76
75815;BME280;64451;45.574;14.224;2022-12-18T06:07:25;98200.47;;;-2.21;94.99
75815;BME280;64451;45.574;14.224;2022-12-18T06:09:25;98206.75;;;-1.99;94.18
75815;BME280;64451;45.574;14.224;2022-12-18T06:11:26;98204.69;;;-2.43;94.79
75815;BME280;64451;45.574;14.224;2022-12-18T06:13:27;98211.94;;;-2.84;95.70
75815;BME280;64451;45.574;14.224;2022-12-18T06:15:27;98208.13;;;-2.82;96.68
75815;BME280;64451;45.574;14.224;2022-12-18T06:17:31;98209.19;;;-2.51;96.06
75815;BME280;64451;45.574;14.224;2022-12-18T06:19:32;98200.50;;;-2.60;96.27
75815;BME280;64451;45.574;14.224;2022-12-18T06:21:33;98207.22;;;-2.58;96.60
75815;BME280;64451;45.574;14.224;2022-12-18T06:23:34;98214.50;;;-2.68;96.82
75815;BME280;64451;45.574;14.224;2022-12-18T06:25:39;98204.75;;;-2.59;97.53
75815;BME280;64451;45.574;14.224;2022-12-18T06:27:41;98215.50;;;-2.69;97.47
75815;BME280;64451;45.574;14.224;2022-12-18T06:29:42;98216.69;;;-2.79;97.36
75815;BME280;64451;45.574;14.224;2022-12-18T06:31:42;98220.53;;;-3.06;97.69
75815;BME280;64451;45.574;14.224;2022-12-18T06:33:43;98224.16;;;-3.16;97.14
75815;BME280;64451;45.574;14.224;2022-12-18T06:35:43;98224.53;;;-3.27;95.88
75815;BME280;64451;45.574;14.224;2022-12-18T06:37:43;98228.50;;;-3.55;97.29
75815;BME280;64451;45.574;14.224;2022-12-18T06:39:44;98229.44;;;-3.24;96.92
75815;BME280;64451;45.574;14.224;2022-12-18T06:41:44;98227.16;;;-3.19;96.38
75815;BME280;64451;45.574;14.224;2022-12-18T06:43:44;98231.06;;;-3.06;96.75
75815;BME280;64451;45.574;14.224;2022-12-18T06:45:45;98226.75;;;-2.91;96.58
75815;BME280;64451;45.574;14.224;2022-12-18T06:47:49;98235.34;;;-2.89;96.54
75815;BME280;64451;45.574;14.224;2022-12-18T06:49:50;98237.28;;;-2.91;96.26
75815;BME280;64451;45.574;14.224;2022-12-18T06:51:50;98237.84;;;-3.12;96.55
75815;BME280;64451;45.574;14.224;2022-12-18T06:53:50;98240.63;;;-3.05;97.44
75815;BME280;64451;45.574;14.224;2022-12-18T06:55:51;98242.88;;;-2.78;96.58
75815;BME280;64451;45.574;14.224;2022-12-18T06:57:51;98254.66;;;-2.58;96.57
75815;BME280;64451;45.574;14.224;2022-12-18T06:59:51;98254.59;;;-2.41;96.35
75815;BME280;64451;45.574;14.224;2022-12-18T07:01:52;98254.59;;;-2.41;96.14
75815;BME280;64451;45.574;14.224;2022-12-18T07:03:53;98256.97;;;-2.55;95.75
75815;BME280;64451;45.574;14.224;2022-12-18T07:05:54;98265.03;;;-2.48;95.96
75815;BME280;64451;45.574;14.224;2022-12-18T07:07:55;98266.03;;;-2.18;94.51
75815;BME280;64451;45.574;14.224;2022-12-18T07:09:55;98260.63;;;-2.24;93.63
75815;BME280;64451;45.574;14.224;2022-12-18T07:11:55;98265.13;;;-2.41;94.26
75815;BME280;64451;45.574;14.224;2022-12-18T07:13:56;98266.22;;;-2.19;93.83
75815;BME280;64451;45.574;14.224;2022-12-18T07:16:14;98271.66;;;-2.21;93.12
75815;BME280;64451;45.574;14.224;2022-12-18T07:18:15;98275.34;;;-2.30;93.40
75815;BME280;64451;45.574;14.224;2022-12-18T07:20:15;98282.25;;;-2.29;94.15
75815;BME280;64451;45.574;14.224;2022-12-18T07:22:15;98282.69;;;-2.17;94.41
75815;BME280;64451;45.574;14.224;2022-12-18T07:24:16;98286.81;;;-2.15;94.16
75815;BME280;64451;45.574;14.224;2022-12-18T07:26:18;98286.63;;;-2.13;94.16
75815;BME280;64451;45.574;14.224;2022-12-18T07:28:19;98286.44;;;-2.12;94.46
75815;BME280;64451;45.574;14.224;2022-12-18T07:30:19;98287.13;;;-2.18;94.62
75815;BME280;64451;45.574;14.224;2022-12-18T07:32:19;98291.19;;;-2.38;95.63
75815;BME280;64451;45.574;14.224;2022-12-18T07:34:20;98297.03;;;-2.20;95.35
75815;BME280;64451;45.574;14.224;2022-12-18T07:36:20;98295.31;;;-2.44;96.27
75815;BME280;64451;45.574;14.224;2022-12-18T07:38:21;98311.50;;;-2.16;95.85
75815;BME280;64451;45.574;14.224;2022-12-18T07:40:22;98307.88;;;-2.07;95.72
75815;BME280;64451;45.574;14.224;2022-12-18T07:42:22;98295.69;;;-2.16;96.31
75815;BME280;64451;45.574;14.224;2022-12-18T07:44:31;98286.63;;;-1.82;95.87
75815;BME280;64451;45.574;14.224;2022-12-18T07:46:31;98292.56;;;-1.57;95.11
75815;BME280;64451;45.574;14.224;2022-12-18T07:48:32;98301.38;;;-1.42;93.82
75815;BME280;64451;45.574;14.224;2022-12-18T07:50:32;98302.13;;;-1.33;93.75
75815;BME280;64451;45.574;14.224;2022-12-18T07:52:32;98304.31;;;-1.14;91.54
75815;BME280;64451;45.574;14.224;2022-12-18T07:54:33;98304.66;;;-1.17;90.79
75815;BME280;64451;45.574;14.224;2022-12-18T07:56:33;98312.91;;;-1.66;93.05
75815;BME280;64451;45.574;14.224;2022-12-18T07:58:34;98322.56;;;-1.27;92.20
75815;BME280;64451;45.574;14.224;2022-12-18T08:00:35;98318.78;;;-1.33;91.49
75815;BME280;64451;45.574;14.224;2022-12-18T08:02:35;98322.81;;;-1.37;92.19
75815;BME280;64451;45.574;14.224;2022-12-18T08:04:36;98322.13;;;-1.62;94.20
75815;BME280;64451;45.574;14.224;2022-12-18T08:06:36;98329.66;;;-1.51;94.48
75815;BME280;64451;45.574;14.224;2022-12-18T08:08:36;98336.06;;;-1.45;94.50
75815;BME280;64451;45.574;14.224;2022-12-18T08:10:37;98332.53;;;-1.60;95.86
75815;BME280;64451;45.574;14.224;2022-12-18T08:12:37;98336.25;;;-1.47;95.82
75815;BME280;64451;45.574;14.224;2022-12-18T08:14:38;98337.19;;;-1.71;96.39
75815;BME280;64451;45.574;14.224;2022-12-18T08:16:38;98336.28;;;-1.55;96.23
75815;BME280;64451;45.574;14.224;2022-12-18T08:18:38;98339.06;;;-1.25;96.26
75815;BME280;64451;45.574;14.224;2022-12-18T08:20:42;98346.41;;;-1.13;95.76
75815;BME280;64451;45.574;14.224;2022-12-18T08:22:42;98347.09;;;-0.96;95.05
75815;BME280;64451;45.574;14.224;2022-12-18T08:24:42;98342.56;;;-0.87;94.85
75815;BME280;64451;45.574;14.224;2022-12-18T08:26:43;98348.50;;;-1.08;95.79
75815;BME280;64451;45.574;14.224;2022-12-18T08:28:43;98349.56;;;-1.17;96.92
75815;BME280;64451;45.574;14.224;2022-12-18T08:30:44;98354.38;;;-0.98;97.11
75815;BME280;64451;45.574;14.224;2022-12-18T08:32:44;98342.03;;;-0.82;95.46
75815;BME280;64451;45.574;14.224;2022-12-18T08:34:44;98347.09;;;-0.96;95.62
75815;BME280;64451;45.574;14.224;2022-12-18T08:36:45;98357.97;;;-0.91;96.33
75815;BME280;64451;45.574;14.224;2022-12-18T08:38:45;98354.19;;;-0.96;96.76
75815;BME280;64451;45.574;14.224;2022-12-18T08:40:46;98350.06;;;-0.76;96.71
75815;BME280;64451;45.574;14.224;2022-12-18T08:42:46;98347.84;;;-0.49;94.25
75815;BME280;64451;45.574;14.224;2022-12-18T08:45:05;98349.13;;;-0.31;91.41
75815;BME280;64451;45.574;14.224;2022-12-18T08:47:06;98350.13;;;-0.32;90.86
75815;BME280;64451;45.574;14.224;2022-12-18T08:49:08;98351.94;;;-0.47;93.25
75815;BME280;64451;45.574;14.224;2022-12-18T08:51:09;98349.78;;;-0.14;91.40
75815;BME280;64451;45.574;14.224;2022-12-18T08:53:09;98350.59;;;-0.28;89.85
75815;BME280;64451;45.574;14.224;2022-12-18T08:55:10;98358.44;;;-0.20;89.20
75815;BME280;64451;45.574;14.224;2022-12-18T08:57:10;98352.59;;;-0.15;89.44
75815;BME280;64451;45.574;14.224;2022-12-18T08:59:10;98365.00;;;-0.01;89.40
75815;BME280;64451;45.574;14.224;2022-12-18T09:01:11;98358.34;;;0.18;88.45
75815;BME280;64451;45.574;14.224;2022-12-18T09:03:13;98365.81;;;-0.01;89.29
75815;BME280;64451;45.574;14.224;2022-12-18T09:05:14;98372.78;;;-0.14;89.21
75815;BME280;64451;45.574;14.224;2022-12-18T09:07:14;98380.44;;;0.10;86.65
75815;BME280;64451;45.574;14.224;2022-12-18T09:09:14;98380.84;;;0.43;84.83
75815;BME280;64451;45.574;14.224;2022-12-18T09:11:23;98377.53;;;0.41;85.84
75815;BME280;64451;45.574;14.224;2022-12-18T09:13:24;98384.53;;;0.27;86.62
75815;BME280;64451;45.574;14.224;2022-12-18T09:15:24;98391.56;;;0.20;87.58
75815;BME280;64451;45.574;14.224;2022-12-18T09:17:25;98386.34;;;0.27;86.82
75815;BME280;64451;45.574;14.224;2022-12-18T09:19:26;98384.97;;;0.31;85.48
75815;BME280;64451;45.574;14.224;2022-12-18T09:21:29;98386.53;;;0.76;84.29
75815;BME280;64451;45.574;14.224;2022-12-18T09:23:30;98381.50;;;1.03;83.40
75815;BME280;64451;45.574;14.224;2022-12-18T09:25:30;98380.03;;;1.22;83.50
75815;BME280;64451;45.574;14.224;2022-12-18T09:27:35;98374.78;;;1.28;82.48
75815;BME280;64451;45.574;14.224;2022-12-18T09:29:36;98379.84;;;1.23;82.97
75815;BME280;64451;45.574;14.224;2022-12-18T09:31:37;98372.13;;;1.28;81.94
75815;BME280;64451;45.574;14.224;2022-12-18T09:33:38;98369.56;;;1.13;84.80
75815;BME280;64451;45.574;14.224;2022-12-18T09:35:39;98371.03;;;1.16;82.61
75815;BME280;64451;45.574;14.224;2022-12-18T09:37:40;98364.25;;;1.35;81.73
75815;BME280;64451;45.574;14.224;2022-12-18T09:39:42;98369.97;;;1.38;80.23
75815;BME280;64451;45.574;14.224;2022-12-18T09:41:53;98365.53;;;1.46;80.10
75815;BME280;64451;45.574;14.224;2022-12-18T09:46:16;98367.38;;;1.45;81.06
75815;BME280;64451;45.574;14.224;2022-12-18T09:48:26;98364.25;;;1.63;80.82
75815;BME280;64451;45.574;14.224;2022-12-18T09:50:37;98362.25;;;1.72;80.25
75815;BME280;64451;45.574;14.224;2022-12-18T09:52:45;98371.03;;;1.72;79.73
75815;BME280;64451;45.574;14.224;2022-12-18T09:55:13;98370.16;;;1.65;79.47
75815;BME280;64451;45.574;14.224;2022-12-18T09:57:19;98376.78;;;1.76;78.91
75815;BME280;64451;45.574;14.224;2022-12-18T09:59:26;98373.94;;;1.77;79.64
75815;BME280;64451;45.574;14.224;2022-12-18T10:01:31;98367.66;;;1.85;78.31
75815;BME280;64451;45.574;14.224;2022-12-18T10:03:32;98374.66;;;1.92;80.71
75815;BME280;64451;45.574;14.224;2022-12-18T10:10:30;98368.50;;;2.27;74.33
75815;BME280;64451;45.574;14.224;2022-12-18T10:12:56;98368.13;;;2.36;76.67
75815;BME280;64451;45.574;14.224;2022-12-18T10:26:21;98345.00;;;2.91;72.05
75815;BME280;64451;45.574;14.224;2022-12-18T10:28:23;98341.75;;;3.09;71.39
75815;BME280;64451;45.574;14.224;2022-12-18T10:30:25;98347.28;;;3.07;69.99
75815;BME280;64451;45.574;14.224;2022-12-18T10:32:28;98352.16;;;2.97;71.75
75815;BME280;64451;45.574;14.224;2022-12-18T10:34:29;98351.34;;;3.03;72.77
75815;BME280;64451;45.574;14.224;2022-12-18T10:36:29;98345.03;;;3.11;71.37
75815;BME280;64451;45.574;14.224;2022-12-18T10:38:31;98344.44;;;3.16;69.77
75815;BME280;64451;45.574;14.224;2022-12-18T10:40:32;98350.13;;;3.13;72.15
75815;BME280;64451;45.574;14.224;2022-12-18T10:42:37;98333.53;;;2.97;70.66
75815;BME280;64451;45.574;14.224;2022-12-18T10:44:37;98335.59;;;3.02;71.08
75815;BME280;64451;45.574;14.224;2022-12-18T10:46:38;98334.59;;;3.09;71.54
75815;BME280;64451;45.574;14.224;2022-12-18T10:50:39;98329.06;;;3.04;69.01
75815;BME280;64451;45.574;14.224;2022-12-18T10:52:39;98337.69;;;3.06;70.16
75815;BME280;64451;45.574;14.224;2022-12-18T10:54:45;98333.16;;;3.14;72.88
75815;BME280;64451;45.574;14.224;2022-12-18T10:56:46;98338.88;;;3.10;72.15
75815;BME280;64451;45.574;14.224;2022-12-18T10:58:57;98343.41;;;3.17;70.17
75815;BME280;64451;45.574;14.224;2022-12-18T11:03:29;98326.41;;;3.37;70.54
75815;BME280;64451;45.574;14.224;2022-12-18T11:05:33;98336.44;;;3.29;68.85
75815;BME280;64451;45.574;14.224;2022-12-18T11:07:48;98330.31;;;3.48;70.35
75815;BME280;64451;45.574;14.224;2022-12-18T11:10:03;98335.44;;;3.50;70.71
75815;BME280;64451;45.574;14.224;2022-12-18T11:12:14;98317.41;;;3.58;70.08
75815;BME280;64451;45.574;14.224;2022-12-18T11:14:21;98315.34;;;3.47;67.67
75815;BME280;64451;45.574;14.224;2022-12-18T11:16:23;98312.91;;;3.26;69.87
75815;BME280;64451;45.574;14.224;2022-12-18T11:18:32;98319.06;;;3.40;67.85
75815;BME280;64451;45.574;14.224;2022-12-18T11:20:36;98319.25;;;3.58;68.77
75815;BME280;64451;45.574;14.224;2022-12-18T11:22:39;98311.47;;;3.56;70.22
75815;BME280;64451;45.574;14.224;2022-12-18T11:24:41;98322.50;;;3.73;69.44